Time;durP1;ratioP1;P1;durP2;ratioP2;P2;SDS_P1;SDS_P2;PMS_P1;PMS_P2;Temp;Humidity;BMP_temperature;BMP_pressure;BME280_temperature;BME280_humidity;BME280_pressure;Samples;Min_cycle;Max_cycle;Signal;HPM_P1;HPM_P2
2023/07/09 00:01:58;;;;;;;6.23;4.10;;;;;;;;;;4982523;28;92667;-56
2023/07/09 00:04:28;;;;;;;10.70;5.17;;;;;;;;;;4987490;28;91452;-56
2023/07/09 00:06:57;;;;;;;6.77;4.80;;;;;;;;;;4993770;28;92647;-58
2023/07/09 00:09:26;;;;;;;5.80;4.30;;;;;;;;;;4993758;28;93000;-55
2023/07/09 00:11:55;;;;;;;6.93;4.40;;;;;;;;;;4987990;28;92934;-55
2023/07/09 00:14:24;;;;;;;7.80;4.60;;;;;;;;;;4989047;28;92060;-55
2023/07/09 00:16:52;;;;;;;5.17;3.67;;;;;;;;;;4979752;28;94163;-55
2023/07/09 00:19:23;;;;;;;7.17;4.27;;;;;;;;;;4988740;28;92722;-56
2023/07/09 00:21:54;;;;;;;6.77;4.27;;;;;;;;;;4998749;28;91926;-55
2023/07/09 00:24:22;;;;;;;5.10;4.10;;;;;;;;;;4983694;28;92075;-55
2023/07/09 00:26:52;;;;;;;5.90;3.73;;;;;;;;;;4996849;28;92503;-55
2023/07/09 00:29:21;;;;;;;9.33;4.17;;;;;;;;;;4985584;28;93349;-55
2023/07/09 00:31:49;;;;;;;4.17;3.20;;;;;;;;;;4981513;28;92456;-55
2023/07/09 00:34:21;;;;;;;7.30;3.63;;;;;;;;;;4998353;28;93397;-55
2023/07/09 00:36:50;;;;;;;4.73;3.30;;;;;;;;;;4992220;28;94014;-55
2023/07/09 00:39:19;;;;;;;5.27;3.93;;;;;;;;;;4994179;28;95200;-55
2023/07/09 00:41:47;;;;;;;5.50;4.10;;;;;;;;;;4980089;28;92081;-55
2023/07/09 00:44:32;;;;;;;7.27;4.10;;;;;;;;;;4995785;28;92099;-55
2023/07/09 00:47:18;;;;;;;8.07;4.93;;;;;;;;;;4996368;28;94060;-55
2023/07/09 00:49:47;;;;;;;8.50;4.23;;;;;;;;;;4997834;28;93845;-55
2023/07/09 00:52:19;;;;;;;4.60;4.00;;;;;;;;;;4994259;28;91908;-55
2023/07/09 00:54:47;;;;;;;7.43;4.27;;;;;;;;;;4991387;28;91330;-55
2023/07/09 00:57:18;;;;;;;5.83;4.23;;;;;;;;;;4980313;28;93412;-55
2023/07/09 00:59:48;;;;;;;6.53;4.30;;;;;;;;;;4995014;28;93817;-56
2023/07/09 01:02:17;;;;;;;8.20;5.00;;;;;;;;;;4980559;28;93088;-55
2023/07/09 01:04:47;;;;;;;6.43;4.33;;;;;;;;;;4993281;28;92123;-55
2023/07/09 01:07:16;;;;;;;6.30;3.73;;;;;;;;;;4997049;28;94233;-55
2023/07/09 01:09:44;;;;;;;4.77;3.77;;;;;;;;;;4983974;28;93912;-55
2023/07/09 01:12:13;;;;;;;4.43;3.43;;;;;;;;;;4986394;28;92081;-56
2023/07/09 01:14:42;;;;;;;5.90;3.90;;;;;;;;;;4984833;28;92163;-55
2023/07/09 01:17:11;;;;;;;5.30;3.70;;;;;;;;;;4988753;28;94158;-55
2023/07/09 01:19:43;;;;;;;6.43;3.80;;;;;;;;;;4997135;28;94164;-55
2023/07/09 01:22:13;;;;;;;4.77;3.37;;;;;;;;;;4986489;28;91778;-56
2023/07/09 01:24:49;;;;;;;6.73;3.57;;;;;;;;;;4994981;28;92113;-55
2023/07/09 01:27:18;;;;;;;6.03;3.37;;;;;;;;;;4996177;28;93059;-56
2023/07/09 01:29:48;;;;;;;5.57;3.83;;;;;;;;;;4989477;28;95171;-56
2023/07/09 01:32:18;;;;;;;4.97;3.23;;;;;;;;;;4982228;28;91970;-55
2023/07/09 01:34:48;;;;;;;4.23;3.07;;;;;;;;;;4987383;28;92203;-55
2023/07/09 01:37:18;;;;;;;5.23;3.13;;;;;;;;;;4982603;28;93464;-55
2023/07/09 01:39:46;;;;;;;3.87;2.93;;;;;;;;;;4988798;28;96085;-55
2023/07/09 01:42:15;;;;;;;3.90;3.10;;;;;;;;;;4996843;28;92126;-55
2023/07/09 01:44:43;;;;;;;4.63;3.27;;;;;;;;;;4995907;28;91349;-55
2023/07/09 01:47:11;;;;;;;4.10;3.10;;;;;;;;;;4996525;28;94166;-55
2023/07/09 01:49:40;;;;;;;7.23;3.43;;;;;;;;;;4993832;28;93799;-56
2023/07/09 01:52:09;;;;;;;4.50;2.83;;;;;;;;;;4994748;28;92830;-55
2023/07/09 01:54:39;;;;;;;3.93;3.53;;;;;;;;;;4986360;28;91921;-55
2023/07/09 01:57:17;;;;;;;3.03;2.67;;;;;;;;;;4995657;28;94421;-55
2023/07/09 01:59:45;;;;;;;5.23;3.17;;;;;;;;;;4985453;28;94102;-55
2023/07/09 02:02:18;;;;;;;5.07;3.00;;;;;;;;;;4999163;28;91873;-55
2023/07/09 02:04:48;;;;;;;4.00;2.70;;;;;;;;;;4990201;28;92077;-55
2023/07/09 02:07:16;;;;;;;4.77;3.03;;;;;;;;;;4978699;28;94103;-55
2023/07/09 02:09:46;;;;;;;6.30;2.73;;;;;;;;;;4978629;28;93948;-55
2023/07/09 02:12:15;;;;;;;3.00;2.50;;;;;;;;;;4979076;28;92028;-56
2023/07/09 02:14:43;;;;;;;6.60;2.93;;;;;;;;;;4978891;28;92131;-56
2023/07/09 02:17:12;;;;;;;6.97;3.00;;;;;;;;;;4988035;28;95237;-55
2023/07/09 02:19:41;;;;;;;5.07;3.23;;;;;;;;;;4998727;28;94772;-55
2023/07/09 02:22:09;;;;;;;3.30;2.47;;;;;;;;;;4999320;28;92069;-56
2023/07/09 02:24:37;;;;;;;4.67;2.63;;;;;;;;;;4998252;28;91871;-55
2023/07/09 02:27:09;;;;;;;5.87;3.17;;;;;;;;;;4998356;28;93188;-56
2023/07/09 02:29:38;;;;;;;4.73;2.87;;;;;;;;;;4998234;28;93794;-55
2023/07/09 02:32:08;;;;;;;4.63;2.97;;;;;;;;;;4993800;28;91871;-56
2023/07/09 02:34:37;;;;;;;4.00;2.77;;;;;;;;;;4981639;28;91338;-55
2023/07/09 02:37:05;;;;;;;3.40;2.83;;;;;;;;;;4977842;28;94283;-56
2023/07/09 02:39:33;;;;;;;6.23;3.13;;;;;;;;;;4984059;28;93895;-56
2023/07/09 02:42:02;;;;;;;5.00;3.10;;;;;;;;;;4996217;28;93024;-55
2023/07/09 02:44:31;;;;;;;4.63;2.70;;;;;;;;;;4981143;28;92142;-55
2023/07/09 02:47:00;;;;;;;5.47;2.73;;;;;;;;;;4986107;28;94313;-55
2023/07/09 02:49:28;;;;;;;2.83;2.30;;;;;;;;;;4990035;28;93998;-55
2023/07/09 02:51:56;;;;;;;4.07;2.63;;;;;;;;;;4988631;28;91935;-55
2023/07/09 02:54:25;;;;;;;3.63;2.63;;;;;;;;;;4988616;28;92141;-56
2023/07/09 02:56:53;;;;;;;2.97;2.07;;;;;;;;;;4986420;28;93099;-55
2023/07/09 02:59:21;;;;;;;5.50;2.40;;;;;;;;;;4996486;28;93884;-55
2023/07/09 03:01:52;;;;;;;2.67;2.47;;;;;;;;;;4994209;28;92012;-55
2023/07/09 03:04:21;;;;;;;4.40;2.77;;;;;;;;;;4994337;28;92015;-56
2023/07/09 03:06:49;;;;;;;3.17;2.70;;;;;;;;;;4984962;28;95281;-55
2023/07/09 03:09:17;;;;;;;5.07;3.03;;;;;;;;;;4991853;28;94755;-55
2023/07/09 03:11:46;;;;;;;3.70;2.47;;;;;;;;;;4982435;28;92119;-56
2023/07/09 03:14:14;;;;;;;4.03;2.77;;;;;;;;;;4979204;28;92077;-55
2023/07/09 03:16:42;;;;;;;4.07;2.70;;;;;;;;;;4991166;28;94133;-55
2023/07/09 03:19:12;;;;;;;4.33;2.73;;;;;;;;;;4991063;28;93774;-55
2023/07/09 03:21:41;;;;;;;3.07;2.50;;;;;;;;;;4985548;28;92083;-55
2023/07/09 03:24:09;;;;;;;5.37;2.57;;;;;;;;;;4979061;28;92193;-56
2023/07/09 03:26:37;;;;;;;3.77;2.30;;;;;;;;;;4986635;28;94214;-55
2023/07/09 03:29:06;;;;;;;4.23;2.30;;;;;;;;;;4977557;28;94508;-56
2023/07/09 03:31:35;;;;;;;5.43;2.80;;;;;;;;;;4993705;28;92842;-55
2023/07/09 03:34:03;;;;;;;3.47;2.67;;;;;;;;;;4985157;28;92124;-55
2023/07/09 03:36:33;;;;;;;4.20;2.40;;;;;;;;;;4991666;28;93040;-55
2023/07/09 03:39:02;;;;;;;4.03;2.77;;;;;;;;;;4982926;28;92929;-55
2023/07/09 03:41:30;;;;;;;3.47;2.90;;;;;;;;;;4977438;28;92035;-55
2023/07/09 03:43:59;;;;;;;5.50;3.07;;;;;;;;;;4996425;28;92027;-56
2023/07/09 03:46:27;;;;;;;3.70;2.90;;;;;;;;;;4997287;28;94389;-55
2023/07/09 03:48:56;;;;;;;4.60;2.83;;;;;;;;;;4997468;28;93741;-56
2023/07/09 03:51:24;;;;;;;4.43;2.70;;;;;;;;;;4997495;28;91967;-56
2023/07/09 03:53:54;;;;;;;4.80;3.30;;;;;;;;;;4996976;28;92105;-55
2023/07/09 03:56:23;;;;;;;5.53;3.33;;;;;;;;;;4976665;28;95245;-56
2023/07/09 03:58:51;;;;;;;4.23;2.83;;;;;;;;;;4977382;28;94825;-55
2023/07/09 04:01:20;;;;;;;3.93;2.90;;;;;;;;;;4977729;28;91870;-55
2023/07/09 04:03:48;;;;;;;6.73;3.40;;;;;;;;;;4978046;28;92139;-55
2023/07/09 04:06:17;;;;;;;4.73;3.77;;;;;;;;;;4980549;28;94339;-55
2023/07/09 04:08:45;;;;;;;5.70;3.00;;;;;;;;;;4980666;28;92753;-55
2023/07/09 04:11:15;;;;;;;5.27;3.03;;;;;;;;;;4996046;28;91920;-55
2023/07/09 04:13:43;;;;;;;4.73;3.03;;;;;;;;;;4992873;28;91328;-55
2023/07/09 04:16:12;;;;;;;4.03;2.90;;;;;;;;;;4994398;28;94078;-55
2023/07/09 04:18:40;;;;;;;4.40;3.33;;;;;;;;;;4990276;28;93937;-56
2023/07/09 04:21:08;;;;;;;5.70;3.40;;;;;;;;;;4998459;28;92937;-55
2023/07/09 04:23:37;;;;;;;3.50;2.83;;;;;;;;;;4989324;28;92057;-55
2023/07/09 04:26:08;;;;;;;4.53;2.90;;;;;;;;;;4995596;28;94453;-57
2023/07/09 04:28:38;;;;;;;5.13;3.13;;;;;;;;;;4992762;28;93109;-55
2023/07/09 04:31:07;;;;;;;3.17;2.50;;;;;;;;;;4992076;28;93268;-55
2023/07/09 04:33:36;;;;;;;3.50;2.87;;;;;;;;;;4984912;28;93486;-55
2023/07/09 04:36:06;;;;;;;4.50;2.80;;;;;;;;;;4987139;28;93511;-56
2023/07/09 04:38:35;;;;;;;4.30;3.17;;;;;;;;;;4982620;28;92882;-56
2023/07/09 04:41:03;;;;;;;6.57;2.70;;;;;;;;;;4992423;28;92007;-56
2023/07/09 04:43:32;;;;;;;5.10;3.13;;;;;;;;;;4995842;28;92188;-56
2023/07/09 04:46:02;;;;;;;3.40;2.43;;;;;;;;;;4993118;28;94047;-56
2023/07/09 04:48:31;;;;;;;4.43;2.90;;;;;;;;;;4983024;28;93730;-56
2023/07/09 04:50:59;;;;;;;4.43;2.30;;;;;;;;;;4991470;28;92075;-55
2023/07/09 04:53:28;;;;;;;4.77;2.80;;;;;;;;;;4990379;28;92509;-56
2023/07/09 04:55:57;;;;;;;7.87;2.73;;;;;;;;;;4980802;28;94470;-56
2023/07/09 04:58:25;;;;;;;3.53;2.30;;;;;;;;;;4984840;28;93015;-56
2023/07/09 05:00:54;;;;;;;3.60;2.53;;;;;;;;;;4980013;28;91976;-56
2023/07/09 05:03:24;;;;;;;3.37;2.33;;;;;;;;;;4985970;28;91308;-56
2023/07/09 05:05:52;;;;;;;6.53;2.50;;;;;;;;;;4991780;28;93916;-57
2023/07/09 05:08:21;;;;;;;3.47;2.80;;;;;;;;;;4984277;28;94025;-56
2023/07/09 05:10:51;;;;;;;3.53;2.73;;;;;;;;;;4988689;28;92795;-56
2023/07/09 05:13:20;;;;;;;5.03;3.00;;;;;;;;;;4984775;28;93500;-56
2023/07/09 05:15:48;;;;;;;4.23;2.37;;;;;;;;;;4991993;28;94224;-56
2023/07/09 05:18:17;;;;;;;7.30;3.27;;;;;;;;;;4984645;28;93907;-56
2023/07/09 05:20:47;;;;;;;6.13;3.33;;;;;;;;;;4987213;28;92107;-56
2023/07/09 05:23:15;;;;;;;4.03;3.30;;;;;;;;;;4985166;28;92077;-56
2023/07/09 05:25:44;;;;;;;6.80;4.00;;;;;;;;;;4983470;28;94338;-56
2023/07/09 05:28:12;;;;;;;6.20;4.10;;;;;;;;;;4983840;28;92757;-55
2023/07/09 05:30:42;;;;;;;8.03;4.03;;;;;;;;;;4984931;28;92041;-57
2023/07/09 05:33:11;;;;;;;7.67;4.27;;;;;;;;;;4992117;28;92105;-56
2023/07/09 05:35:39;;;;;;;6.63;4.63;;;;;;;;;;4979791;28;97678;-56
2023/07/09 05:38:09;;;;;;;6.37;4.03;;;;;;;;;;4992857;28;94778;-56
2023/07/09 05:40:37;;;;;;;9.20;5.23;;;;;;;;;;4998366;28;91922;-56
2023/07/09 05:43:06;;;;;;;8.40;6.10;;;;;;;;;;4987701;28;92205;-55
2023/07/09 05:45:34;;;;;;;10.07;5.87;;;;;;;;;;4984261;28;94097;-56
2023/07/09 05:48:03;;;;;;;11.57;6.13;;;;;;;;;;4986052;28;94156;-56
2023/07/09 05:50:31;;;;;;;11.03;6.27;;;;;;;;;;4985694;28;92120;-56
2023/07/09 05:53:00;;;;;;;8.77;5.97;;;;;;;;;;4984223;28;91432;-56
2023/07/09 05:55:29;;;;;;;10.27;6.53;;;;;;;;;;4989958;28;94202;-55
2023/07/09 05:57:58;;;;;;;10.30;5.80;;;;;;;;;;4989198;28;93968;-55
2023/07/09 06:00:26;;;;;;;9.97;6.50;;;;;;;;;;4985723;28;92989;-56
2023/07/09 06:02:54;;;;;;;9.00;6.40;;;;;;;;;;4988615;28;93203;-56
2023/07/09 06:05:23;;;;;;;9.73;5.60;;;;;;;;;;4983062;28;94096;-56
2023/07/09 06:07:51;;;;;;;6.33;5.00;;;;;;;;;;4988549;28;94087;-56
2023/07/09 06:10:21;;;;;;;8.13;5.13;;;;;;;;;;4990737;28;92052;-56
2023/07/09 06:12:51;;;;;;;9.53;4.70;;;;;;;;;;4990748;28;92129;-56
2023/07/09 06:15:19;;;;;;;7.17;4.83;;;;;;;;;;4985332;28;94747;-56
2023/07/09 06:17:48;;;;;;;7.03;4.10;;;;;;;;;;4984302;28;93891;-56
2023/07/09 06:20:16;;;;;;;7.83;4.73;;;;;;;;;;4986158;28;92347;-56
2023/07/09 06:22:45;;;;;;;9.13;4.23;;;;;;;;;;4985786;28;92228;-56
2023/07/09 06:25:13;;;;;;;7.23;4.47;;;;;;;;;;4982002;28;95193;-56
2023/07/09 06:27:42;;;;;;;8.23;4.93;;;;;;;;;;4983790;28;95071;-56
2023/07/09 06:30:14;;;;;;;8.57;5.17;;;;;;;;;;4980962;28;92177;-56
2023/07/09 06:32:42;;;;;;;9.50;5.57;;;;;;;;;;4986968;28;92261;-56
2023/07/09 06:35:10;;;;;;;8.17;5.83;;;;;;;;;;4988841;28;94076;-56
2023/07/09 06:37:39;;;;;;;8.73;5.80;;;;;;;;;;4979462;28;94293;-56
2023/07/09 06:40:08;;;;;;;9.37;4.97;;;;;;;;;;4986553;28;91964;-56
2023/07/09 06:42:37;;;;;;;8.50;5.03;;;;;;;;;;4989065;28;91567;-56
2023/07/09 06:45:06;;;;;;;8.83;5.60;;;;;;;;;;4979505;28;94441;-57
2023/07/09 06:47:35;;;;;;;7.17;4.97;;;;;;;;;;4989331;28;93759;-56
2023/07/09 06:50:04;;;;;;;9.07;5.47;;;;;;;;;;4982172;28;93085;-56
2023/07/09 06:52:32;;;;;;;8.33;5.03;;;;;;;;;;4991800;28;92222;-56
2023/07/09 06:55:01;;;;;;;11.03;4.70;;;;;;;;;;4993791;28;94351;-56
2023/07/09 06:57:30;;;;;;;5.43;4.37;;;;;;;;;;4983523;28;93974;-57
2023/07/09 06:59:58;;;;;;;6.63;3.87;;;;;;;;;;4989791;28;92181;-56
2023/07/09 07:02:27;;;;;;;7.47;3.77;;;;;;;;;;4978067;28;92297;-56
2023/07/09 07:04:57;;;;;;;4.83;3.63;;;;;;;;;;4979162;28;94900;-56
2023/07/09 07:07:25;;;;;;;5.37;4.00;;;;;;;;;;4985318;28;93925;-56
2023/07/09 07:09:54;;;;;;;5.87;3.00;;;;;;;;;;4985472;28;93525;-56
2023/07/09 07:12:25;;;;;;;4.03;2.97;;;;;;;;;;4978453;28;92250;-56
2023/07/09 07:14:54;;;;;;;5.53;3.07;;;;;;;;;;4985990;28;95155;-56
2023/07/09 07:17:22;;;;;;;4.90;3.20;;;;;;;;;;4977553;28;95169;-56
2023/07/09 07:19:51;;;;;;;4.57;3.23;;;;;;;;;;4981019;28;93451;-56
2023/07/09 07:22:20;;;;;;;3.73;2.80;;;;;;;;;;4986883;28;92337;-56
2023/07/09 07:24:49;;;;;;;4.27;3.20;;;;;;;;;;4980870;28;94176;-56
2023/07/09 07:27:17;;;;;;;4.13;2.97;;;;;;;;;;4978296;28;94167;-56
2023/07/09 07:29:46;;;;;;;4.10;2.80;;;;;;;;;;4978233;28;92194;-56
2023/07/09 07:32:14;;;;;;;5.23;3.20;;;;;;;;;;4981531;28;91513;-56
2023/07/09 07:34:43;;;;;;;2.93;2.30;;;;;;;;;;4983881;28;94788;-55
2023/07/09 07:37:11;;;;;;;4.23;2.70;;;;;;;;;;4982595;28;93989;-55
2023/07/09 07:39:41;;;;;;;5.87;2.87;;;;;;;;;;4981588;28;93452;-54
2023/07/09 07:42:10;;;;;;;3.23;2.20;;;;;;;;;;4989334;28;92088;-54
2023/07/09 07:44:38;;;;;;;4.77;2.97;;;;;;;;;;4995010;28;93455;-55
2023/07/09 07:47:07;;;;;;;4.30;2.57;;;;;;;;;;4982970;28;93681;-56
2023/07/09 07:49:35;;;;;;;7.40;2.97;;;;;;;;;;4986476;28;92148;-56
2023/07/09 07:52:04;;;;;;;3.87;2.70;;;;;;;;;;4987264;28;93298;-56
2023/07/09 07:54:32;;;;;;;3.47;2.83;;;;;;;;;;4978025;28;93162;-56
2023/07/09 07:57:02;;;;;;;5.53;2.77;;;;;;;;;;4991697;28;94247;-56
2023/07/09 07:59:32;;;;;;;3.93;2.33;;;;;;;;;;4986954;28;92012;-56
2023/07/09 08:02:00;;;;;;;3.83;2.60;;;;;;;;;;4988909;28;92123;-56
2023/07/09 08:04:29;;;;;;;3.60;2.13;;;;;;;;;;4985571;28;95140;-56
2023/07/09 08:06:58;;;;;;;3.53;2.53;;;;;;;;;;4986085;28;94723;-56
2023/07/09 08:09:27;;;;;;;4.00;2.40;;;;;;;;;;4990629;28;92083;-55
2023/07/09 08:11:55;;;;;;;3.37;2.57;;;;;;;;;;4988447;28;92240;-55
2023/07/09 08:14:25;;;;;;;8.33;3.30;;;;;;;;;;4981306;28;94182;-55
2023/07/09 08:16:53;;;;;;;2.97;2.67;;;;;;;;;;4978027;28;94091;-56
2023/07/09 08:19:22;;;;;;;3.83;2.63;;;;;;;;;;4987437;28;92457;-55
2023/07/09 08:21:50;;;;;;;5.93;3.00;;;;;;;;;;4977813;28;91372;-56
2023/07/09 08:24:18;;;;;;;4.17;2.70;;;;;;;;;;4990953;28;93202;-56
2023/07/09 08:26:47;;;;;;;5.53;3.13;;;;;;;;;;4990411;28;93814;-55
2023/07/09 08:29:15;;;;;;;4.83;2.90;;;;;;;;;;4987283;28;93067;-55
2023/07/09 08:31:45;;;;;;;3.63;2.40;;;;;;;;;;4988057;28;92498;-56
2023/07/09 08:34:14;;;;;;;5.00;2.87;;;;;;;;;;4988382;28;94245;-57
2023/07/09 08:36:42;;;;;;;4.47;2.50;;;;;;;;;;4985716;28;92930;-56
2023/07/09 08:39:10;;;;;;;2.87;2.13;;;;;;;;;;4980558;28;93122;-56
2023/07/09 08:41:41;;;;;;;4.30;2.87;;;;;;;;;;4983455;28;92473;-57
2023/07/09 08:44:13;;;;;;;4.17;2.13;;;;;;;;;;4984393;28;94199;-56
2023/07/09 08:46:46;;;;;;;6.40;2.97;;;;;;;;;;4987990;28;94101;-56
2023/07/09 08:49:17;;;;;;;4.90;2.80;;;;;;;;;;4982720;28;92241;-57
2023/07/09 08:51:46;;;;;;;5.33;2.20;;;;;;;;;;4981018;28;92203;-55
2023/07/09 08:54:15;;;;;;;4.60;2.77;;;;;;;;;;4977929;28;94193;-57
2023/07/09 08:56:43;;;;;;;3.80;2.97;;;;;;;;;;4976727;28;95076;-57
2023/07/09 08:59:12;;;;;;;5.40;2.50;;;;;;;;;;4977021;28;91997;-58
2023/07/09 09:01:40;;;;;;;2.40;2.00;;;;;;;;;;4976629;28;92554;-57
2023/07/09 09:04:13;;;;;;;4.20;2.70;;;;;;;;;;4979559;28;94334;-60
2023/07/09 09:06:43;;;;;;;5.50;2.63;;;;;;;;;;4996656;28;95274;-62
2023/07/09 09:09:13;;;;;;;3.60;2.20;;;;;;;;;;4996835;28;92230;-55
2023/07/09 09:11:45;;;;;;;2.63;1.77;;;;;;;;;;4995919;28;91284;-56
2023/07/09 09:14:32;;;;;;;2.73;1.80;;;;;;;;;;4994679;28;94356;-56
2023/07/09 09:17:00;;;;;;;2.90;1.80;;;;;;;;;;4978281;28;92715;-54
2023/07/09 09:19:29;;;;;;;2.80;2.20;;;;;;;;;;4993857;28;93160;-54
2023/07/09 09:22:00;;;;;;;3.57;1.63;;;;;;;;;;4992137;28;92669;-54
2023/07/09 09:24:33;;;;;;;2.57;1.63;;;;;;;;;;4986689;28;94175;-54
2023/07/09 09:27:01;;;;;;;2.27;1.70;;;;;;;;;;4989915;28;94074;-54
2023/07/09 09:29:30;;;;;;;2.20;1.27;;;;;;;;;;4995489;28;92233;-54
2023/07/09 09:31:58;;;;;;;2.57;1.87;;;;;;;;;;4981733;28;92056;-54
2023/07/09 09:34:28;;;;;;;2.40;1.40;;;;;;;;;;4980331;28;94082;-55
2023/07/09 09:36:56;;;;;;;2.37;1.43;;;;;;;;;;4993942;28;92738;-53
2023/07/09 09:39:26;;;;;;;3.23;1.63;;;;;;;;;;4988291;28;92163;-53
2023/07/09 09:41:55;;;;;;;1.13;1.00;;;;;;;;;;4976693;28;92508;-55
2023/07/09 09:44:26;;;;;;;2.20;1.33;;;;;;;;;;4979413;28;94224;-56
2023/07/09 09:46:54;;;;;;;3.83;1.37;;;;;;;;;;4977340;28;93679;-57
2023/07/09 09:49:25;;;;;;;1.17;1.07;;;;;;;;;;4989754;28;92171;-57
2023/07/09 09:51:56;;;;;;;3.03;1.43;;;;;;;;;;4993061;28;92182;-56
2023/07/09 09:54:30;;;;;;;3.23;1.03;;;;;;;;;;4984376;28;94155;-56
2023/07/09 09:56:59;;;;;;;1.80;1.20;;;;;;;;;;4978110;28;92720;-57
2023/07/09 09:59:29;;;;;;;1.50;1.20;;;;;;;;;;4981546;28;92215;-56
2023/07/09 10:01:58;;;;;;;1.33;1.23;;;;;;;;;;4985483;28;91415;-56
2023/07/09 10:04:27;;;;;;;1.07;0.90;;;;;;;;;;4987882;28;94404;-56
2023/07/09 10:06:56;;;;;;;2.50;1.23;;;;;;;;;;4980727;28;94035;-56
2023/07/09 10:09:28;;;;;;;1.50;1.23;;;;;;;;;;4991166;28;92969;-56
2023/07/09 10:11:59;;;;;;;1.73;1.53;;;;;;;;;;4986199;28;92230;-56
2023/07/09 10:14:33;;;;;;;1.43;1.03;;;;;;;;;;4975270;28;94265;-56
2023/07/09 10:17:02;;;;;;;1.00;0.83;;;;;;;;;;4988796;28;94153;-56
2023/07/09 10:19:33;;;;;;;2.20;1.57;;;;;;;;;;4987997;28;92131;-57
2023/07/09 10:22:02;;;;;;;2.93;1.20;;;;;;;;;;4993009;28;92219;-56
2023/07/09 10:24:36;;;;;;;1.43;0.77;;;;;;;;;;4984239;28;94256;-58
2023/07/09 10:27:06;;;;;;;1.73;1.20;;;;;;;;;;4981315;28;92874;-56
2023/07/09 10:29:38;;;;;;;1.33;0.80;;;;;;;;;;4980674;28;92034;-56
2023/07/09 10:32:10;;;;;;;1.13;1.03;;;;;;;;;;4985171;28;92184;-56
2023/07/09 10:34:40;;;;;;;3.53;1.20;;;;;;;;;;4982031;28;95592;-57
2023/07/09 10:37:15;;;;;;;2.30;1.20;;;;;;;;;;4991894;28;95006;-57
2023/07/09 10:39:48;;;;;;;1.57;1.20;;;;;;;;;;4978597;28;92048;-56
2023/07/09 10:42:19;;;;;;;1.30;1.07;;;;;;;;;;4989866;28;92138;-56
2023/07/09 10:44:48;;;;;;;1.83;1.00;;;;;;;;;;4986255;28;93340;-56
2023/07/09 10:47:19;;;;;;;4.70;1.30;;;;;;;;;;4993419;28;92788;-57
2023/07/09 10:49:48;;;;;;;4.10;0.90;;;;;;;;;;4995250;28;92126;-57
2023/07/09 10:52:19;;;;;;;1.83;1.13;;;;;;;;;;4986748;28;91372;-57
2023/07/09 10:54:52;;;;;;;2.73;1.17;;;;;;;;;;4979093;28;93700;-57
2023/07/09 10:57:24;;;;;;;1.07;0.90;;;;;;;;;;4981328;28;93811;-57
2023/07/09 10:59:52;;;;;;;2.27;1.67;;;;;;;;;;4975981;28;93012;-57
2023/07/09 11:02:22;;;;;;;2.30;1.40;;;;;;;;;;4988208;28;92127;-57
2023/07/09 11:04:52;;;;;;;2.57;1.30;;;;;;;;;;4974486;28;93145;-57
2023/07/09 11:07:22;;;;;;;2.47;1.50;;;;;;;;;;4975785;28;92956;-57
2023/07/09 11:09:54;;;;;;;1.43;1.07;;;;;;;;;;4976632;28;92592;-56
2023/07/09 11:12:26;;;;;;;1.87;1.10;;;;;;;;;;4993170;28;92305;-57
2023/07/09 11:14:55;;;;;;;4.23;1.30;;;;;;;;;;4994863;28;94443;-57
2023/07/09 11:17:23;;;;;;;1.47;1.00;;;;;;;;;;4994842;28;92971;-56
2023/07/09 11:19:55;;;;;;;1.40;1.00;;;;;;;;;;4981917;28;92051;-57
2023/07/09 11:22:24;;;;;;;1.97;1.33;;;;;;;;;;4984772;28;92418;-58
2023/07/09 11:25:06;;;;;;;2.00;1.30;;;;;;;;;;4977599;28;95070;-57
2023/07/09 11:27:34;;;;;;;1.67;1.00;;;;;;;;;;4986400;28;95171;-60
2023/07/09 11:30:05;;;;;;;1.13;0.93;;;;;;;;;;4997255;28;92014;-59
2023/07/09 11:32:33;;;;;;;1.97;1.17;;;;;;;;;;4996035;28;92088;-59
2023/07/09 11:35:08;;;;;;;5.27;1.50;;;;;;;;;;4991409;28;94355;-58
2023/07/09 11:37:45;;;;;;;2.27;1.33;;;;;;;;;;4984620;28;94290;-57
2023/07/09 11:40:18;;;;;;;4.13;1.60;;;;;;;;;;4978330;28;91991;-57
2023/07/09 11:42:49;;;;;;;2.33;1.50;;;;;;;;;;4979456;28;91329;-56
2023/07/09 11:45:18;;;;;;;2.50;1.47;;;;;;;;;;4981187;28;93101;-60
2023/07/09 11:47:46;;;;;;;1.40;1.10;;;;;;;;;;4997799;28;93392;-61
2023/07/09 11:50:18;;;;;;;1.70;1.10;;;;;;;;;;4994645;28;92958;-56
2023/07/09 11:52:50;;;;;;;1.27;1.13;;;;;;;;;;4990495;28;92036;-56
2023/07/09 11:55:24;;;;;;;2.40;1.40;;;;;;;;;;4997541;28;94242;-56
2023/07/09 11:57:54;;;;;;;1.00;0.90;;;;;;;;;;4995635;28;93862;-60
2023/07/09 12:00:22;;;;;;;2.33;1.07;;;;;;;;;;4986273;28;91953;-59
2023/07/09 12:02:51;;;;;;;1.63;1.00;;;;;;;;;;4994792;28;92291;-56
2023/07/09 12:05:21;;;;;;;1.70;1.00;;;;;;;;;;4989298;28;94255;-57
2023/07/09 12:07:49;;;;;;;1.20;1.00;;;;;;;;;;4981821;28;93862;-61
2023/07/09 12:10:20;;;;;;;1.53;1.10;;;;;;;;;;4988824;28;92738;-59
2023/07/09 12:12:50;;;;;;;1.20;1.00;;;;;;;;;;4997545;28;92050;-57
2023/07/09 12:15:20;;;;;;;1.47;0.87;;;;;;;;;;4987320;28;95332;-56
2023/07/09 12:17:55;;;;;;;2.40;1.20;;;;;;;;;;4976483;28;93583;-56
2023/07/09 12:20:24;;;;;;;2.13;1.13;;;;;;;;;;4995410;28;92160;-56
2023/07/09 12:22:52;;;;;;;3.30;1.13;;;;;;;;;;4981602;28;92164;-55
2023/07/09 12:25:22;;;;;;;2.67;1.30;;;;;;;;;;4988849;28;93438;-56
2023/07/09 12:27:51;;;;;;;2.03;1.40;;;;;;;;;;4989631;28;92102;-58
2023/07/09 12:30:20;;;;;;;1.30;1.20;;;;;;;;;;4986738;28;92309;-57
2023/07/09 12:32:50;;;;;;;1.57;1.20;;;;;;;;;;4981599;28;91246;-57
2023/07/09 12:35:18;;;;;;;3.13;1.27;;;;;;;;;;4981286;28;92221;-57
2023/07/09 12:37:47;;;;;;;2.50;1.60;;;;;;;;;;4983548;28;93560;-57
2023/07/09 12:40:17;;;;;;;5.57;1.67;;;;;;;;;;4976369;28;92898;-57
2023/07/09 12:42:46;;;;;;;3.00;1.23;;;;;;;;;;4976649;28;92163;-58
2023/07/09 12:45:20;;;;;;;2.83;1.40;;;;;;;;;;4981509;28;94317;-57
2023/07/09 12:47:48;;;;;;;3.43;1.20;;;;;;;;;;4977304;28;93924;-58
2023/07/09 12:50:21;;;;;;;3.60;1.40;;;;;;;;;;4983245;28;92088;-57
2023/07/09 12:52:50;;;;;;;3.03;1.80;;;;;;;;;;4979324;28;93219;-57
2023/07/09 12:55:21;;;;;;;2.63;1.87;;;;;;;;;;4987639;28;94327;-57
2023/07/09 12:57:51;;;;;;;2.93;1.50;;;;;;;;;;4987761;28;93416;-57
2023/07/09 13:00:31;;;;;;;2.10;1.53;;;;;;;;;;4985085;28;92089;-57
2023/07/09 13:02:59;;;;;;;2.53;1.50;;;;;;;;;;4981389;28;92110;-57
2023/07/09 13:05:29;;;;;;;5.97;1.80;;;;;;;;;;4995686;28;95100;-57
2023/07/09 13:08:00;;;;;;;6.33;2.03;;;;;;;;;;4996755;28;95075;-57
2023/07/09 13:10:29;;;;;;;1.60;1.17;;;;;;;;;;4996938;28;92077;-57
2023/07/09 13:12:58;;;;;;;2.60;1.43;;;;;;;;;;4996695;28;92056;-57
2023/07/09 13:15:29;;;;;;;1.90;1.33;;;;;;;;;;4996332;28;93524;-57
2023/07/09 13:18:05;;;;;;;2.77;1.67;;;;;;;;;;4983001;28;93860;-57
2023/07/09 13:20:34;;;;;;;5.63;1.70;;;;;;;;;;4976898;28;92144;-57
2023/07/09 13:23:02;;;;;;;2.20;1.73;;;;;;;;;;4977162;28;91710;-57
2023/07/09 13:25:30;;;;;;;2.07;1.40;;;;;;;;;;4976367;28;93272;-57
2023/07/09 13:28:18;;;;;;;2.00;1.57;;;;;;;;;;4975918;28;94114;-57
2023/07/09 13:30:47;;;;;;;2.20;1.47;;;;;;;;;;4976001;28;92931;-57
2023/07/09 13:33:17;;;;;;;3.30;1.43;;;;;;;;;;4976440;28;92596;-57
2023/07/09 13:35:46;;;;;;;3.73;1.90;;;;;;;;;;4976291;28;94165;-57
2023/07/09 13:38:15;;;;;;;2.23;1.50;;;;;;;;;;4976192;28;92874;-57
2023/07/09 13:40:44;;;;;;;3.20;1.93;;;;;;;;;;4976725;28;92552;-57
2023/07/09 13:43:13;;;;;;;2.70;1.50;;;;;;;;;;4976410;28;92217;-57
2023/07/09 13:45:42;;;;;;;3.03;1.73;;;;;;;;;;4975779;28;93311;-58
2023/07/09 13:48:15;;;;;;;2.07;1.53;;;;;;;;;;4976451;28;92697;-57
2023/07/09 13:50:44;;;;;;;2.13;1.50;;;;;;;;;;4976646;28;91950;-57
2023/07/09 13:53:14;;;;;;;1.37;1.17;;;;;;;;;;4975573;28;92391;-57
2023/07/09 13:55:43;;;;;;;1.63;0.97;;;;;;;;;;4975414;28;95188;-57
2023/07/09 13:58:11;;;;;;;2.17;1.53;;;;;;;;;;4975840;28;93814;-57
2023/07/09 14:00:40;;;;;;;4.80;1.40;;;;;;;;;;4975998;28;92104;-57
2023/07/09 14:03:11;;;;;;;3.50;1.83;;;;;;;;;;4975865;28;92143;-57
2023/07/09 14:05:41;;;;;;;3.73;1.70;;;;;;;;;;4975451;28;93016;-57
2023/07/09 14:08:10;;;;;;;4.57;1.57;;;;;;;;;;4975789;28;94251;-57
2023/07/09 14:10:40;;;;;;;4.33;2.67;;;;;;;;;;4976013;28;92251;-57
2023/07/09 14:13:10;;;;;;;3.80;1.93;;;;;;;;;;4975813;28;91757;-57
2023/07/09 14:15:38;;;;;;;4.40;2.33;;;;;;;;;;4975706;28;93450;-57
2023/07/09 14:18:10;;;;;;;3.63;2.30;;;;;;;;;;4975261;28;92100;-57
2023/07/09 14:20:39;;;;;;;4.10;2.10;;;;;;;;;;4975685;28;93173;-57
2023/07/09 14:23:10;;;;;;;2.33;1.90;;;;;;;;;;4975736;28;92082;-57
2023/07/09 14:25:39;;;;;;;3.37;2.20;;;;;;;;;;4975320;28;94341;-57
2023/07/09 14:28:10;;;;;;;3.27;2.13;;;;;;;;;;4975148;28;92818;-57
2023/07/09 14:30:38;;;;;;;2.33;2.03;;;;;;;;;;4976184;28;92091;-57
2023/07/09 14:33:06;;;;;;;2.13;1.80;;;;;;;;;;4975932;28;92745;-57
2023/07/09 14:35:36;;;;;;;2.73;1.80;;;;;;;;;;4975359;28;93004;-57
2023/07/09 14:38:05;;;;;;;3.47;2.50;;;;;;;;;;4975715;28;94395;-57
2023/07/09 14:40:35;;;;;;;3.73;2.30;;;;;;;;;;4975503;28;92263;-56
2023/07/09 14:43:06;;;;;;;3.37;2.33;;;;;;;;;;4974753;28;92107;-57
2023/07/09 14:45:34;;;;;;;3.67;2.03;;;;;;;;;;4974919;28;94970;-57
2023/07/09 14:48:03;;;;;;;4.13;1.90;;;;;;;;;;4974994;28;95206;-57
2023/07/09 14:50:31;;;;;;;4.33;2.30;;;;;;;;;;4975788;28;92026;-57
2023/07/09 14:53:00;;;;;;;4.90;2.57;;;;;;;;;;4975207;28;92597;-57
2023/07/09 14:55:29;;;;;;;2.07;1.80;;;;;;;;;;4975908;28;93174;-57
2023/07/09 14:58:00;;;;;;;3.00;2.30;;;;;;;;;;4994784;28;92098;-57